createdAt,value
2023-04-21T00:01:44.141Z,7.05
2023-04-21T00:04:15.212Z,6.75
2023-04-21T00:06:42.724Z,6.78
2023-04-21T00:09:11.177Z,6.90
2023-04-21T00:11:38.373Z,6.30
2023-04-21T00:14:05.691Z,7.45
2023-04-21T00:16:32.938Z,7.78
2023-04-21T00:19:00.503Z,7.45
2023-04-21T00:21:27.579Z,6.85
2023-04-21T00:23:54.863Z,6.80
2023-04-21T00:26:21.941Z,6.25
2023-04-21T00:28:50.998Z,6.93
2023-04-21T00:31:18.150Z,7.10
2023-04-21T00:33:45.570Z,6.85
2023-04-21T00:36:12.644Z,6.25
2023-04-21T00:38:39.911Z,7.95
2023-04-21T00:41:08.518Z,6.80
2023-04-21T00:43:58.545Z,6.80
2023-04-21T00:46:25.677Z,6.60
2023-04-21T00:48:54.209Z,7.00
2023-04-21T00:51:21.787Z,6.75
2023-04-21T00:53:50.217Z,7.15
2023-04-21T00:56:18.734Z,6.70
2023-04-21T00:58:46.289Z,6.90
2023-04-21T01:01:14.655Z,7.00
2023-04-21T01:03:47.724Z,6.57
2023-04-21T01:06:15.224Z,6.85
2023-04-21T01:08:42.586Z,6.72
2023-04-21T01:11:13.795Z,7.95
2023-04-21T01:13:41.341Z,7.03
2023-04-21T01:16:08.452Z,6.43
2023-04-21T01:18:37.004Z,7.28
2023-04-21T01:21:04.480Z,6.30
2023-04-21T01:23:32.155Z,6.43
2023-04-21T01:25:59.282Z,7.38
2023-04-21T01:28:27.071Z,6.85
2023-04-21T01:30:54.261Z,6.55
2023-04-21T01:33:23.127Z,6.93
2023-04-21T01:35:50.973Z,6.63
2023-04-21T01:38:20.729Z,6.57
2023-04-21T01:40:50.074Z,7.18
2023-04-21T01:43:20.128Z,6.82
2023-04-21T01:45:48.144Z,5.75
2023-04-21T01:48:15.983Z,6.30
2023-04-21T01:50:43.064Z,6.18
2023-04-21T01:53:11.245Z,7.07
2023-04-21T01:55:38.350Z,6.40
2023-04-21T01:58:09.434Z,6.85
2023-04-21T02:00:36.662Z,6.88
2023-04-21T02:03:05.789Z,7.03
2023-04-21T02:05:33.021Z,6.45
2023-04-21T02:08:00.486Z,6.97
2023-04-21T02:10:27.654Z,6.07
2023-04-21T02:12:55.428Z,6.13
2023-04-21T02:15:22.673Z,7.07
2023-04-21T02:17:50.162Z,6.30
2023-04-21T02:20:17.208Z,6.38
2023-04-21T02:22:44.602Z,6.55
2023-04-21T02:25:11.630Z,6.03
2023-04-21T02:27:39.781Z,6.22
2023-04-21T02:30:07.996Z,6.80
2023-04-21T02:32:35.653Z,6.55
2023-04-21T02:35:05.046Z,7.10
2023-04-21T02:37:32.543Z,6.43
2023-04-21T02:39:59.589Z,6.45
2023-04-21T02:42:27.038Z,6.70
2023-04-21T02:44:54.103Z,6.70
2023-04-21T02:47:21.554Z,7.18
2023-04-21T02:49:48.647Z,7.43
2023-04-21T02:52:16.051Z,6.93
2023-04-21T02:54:43.223Z,7.32
2023-04-21T02:57:10.967Z,6.18
2023-04-21T02:59:40.279Z,7.43
2023-04-21T03:02:07.775Z,7.03
2023-04-21T03:04:39.425Z,6.43
2023-04-21T03:07:12.569Z,6.50
2023-04-21T03:09:40.285Z,6.55
2023-04-21T03:12:07.607Z,6.78
2023-04-21T03:14:36.454Z,6.78
2023-04-21T03:17:03.782Z,6.68
2023-04-21T03:19:33.066Z,6.68
2023-04-21T03:22:00.457Z,6.50
2023-04-21T03:24:28.042Z,5.93
2023-04-21T03:26:56.957Z,6.45
2023-04-21T03:29:24.597Z,6.00
2023-04-21T03:31:52.049Z,6.35
2023-04-21T03:34:19.436Z,5.93
2023-04-21T03:36:46.978Z,5.70
2023-04-21T03:41:46.864Z,6.68
2023-04-21T03:44:13.951Z,6.05
2023-04-21T03:46:41.303Z,6.50
2023-04-21T03:49:08.336Z,6.60
2023-04-21T03:51:35.783Z,6.50
2023-04-21T03:54:02.860Z,6.60
2023-04-21T03:56:30.401Z,7.25
2023-04-21T03:58:57.440Z,7.40
2023-04-21T04:01:24.760Z,6.57
2023-04-21T04:03:51.918Z,7.78
2023-04-21T04:06:19.424Z,7.25
2023-04-21T04:08:46.568Z,7.97
2023-04-21T04:11:13.959Z,6.97
2023-04-21T04:13:41.079Z,6.38
2023-04-21T04:16:08.539Z,6.65
2023-04-21T04:18:35.749Z,6.38
2023-04-21T04:21:09.800Z,6.50
2023-04-21T04:23:36.927Z,6.40
2023-04-21T04:26:07.372Z,6.72
2023-04-21T04:28:35.014Z,6.60
2023-04-21T04:31:03.184Z,8.05
2023-04-21T04:33:30.640Z,6.15
2023-04-21T04:35:58.381Z,6.78
2023-04-21T04:38:25.573Z,7.05
2023-04-21T04:40:57.623Z,6.40
2023-04-21T04:43:25.531Z,6.30
2023-04-21T04:45:53.379Z,6.65
2023-04-21T04:48:20.641Z,6.65
2023-04-21T04:50:48.056Z,7.50
2023-04-21T04:53:15.329Z,6.75
2023-04-21T04:55:42.766Z,6.53
2023-04-21T04:58:09.839Z,6.88
2023-04-21T05:00:37.693Z,6.85
2023-04-21T05:03:05.148Z,6.63
2023-04-21T05:05:32.791Z,7.18
2023-04-21T05:07:59.816Z,6.57
2023-04-21T05:10:27.181Z,6.03
2023-04-21T05:12:54.937Z,6.57
2023-04-21T05:15:23.100Z,6.55
2023-04-21T05:17:50.336Z,6.43
2023-04-21T05:20:17.987Z,6.60
2023-04-21T05:22:45.105Z,6.13
2023-04-21T05:25:15.665Z,6.15
2023-04-21T05:27:43.389Z,6.78
2023-04-21T05:30:11.367Z,6.05
2023-04-21T05:32:38.649Z,6.70
2023-04-21T05:35:06.605Z,6.18
2023-04-21T05:37:33.722Z,5.95
2023-04-21T05:40:02.037Z,5.45
2023-04-21T05:42:29.207Z,6.63
2023-04-21T05:44:57.123Z,6.07
2023-04-21T05:47:24.122Z,5.38
2023-04-21T05:49:53.729Z,6.40
2023-04-21T05:52:23.970Z,7.88
2023-04-21T05:54:51.511Z,6.68
2023-04-21T05:57:18.875Z,6.57
2023-04-21T05:59:46.769Z,6.18
2023-04-21T06:02:14.414Z,7.07
2023-04-21T06:04:42.160Z,5.75
2023-04-21T06:07:10.578Z,5.60
2023-04-21T06:09:38.340Z,6.75
2023-04-21T06:12:06.152Z,6.30
2023-04-21T06:14:33.500Z,6.03
2023-04-21T06:17:00.671Z,5.32
2023-04-21T06:19:28.135Z,5.45
2023-04-21T06:21:57.030Z,5.38
2023-04-21T06:24:27.350Z,5.50
2023-04-21T06:26:54.440Z,6.72
2023-04-21T06:29:21.780Z,7.10
2023-04-21T06:31:48.988Z,7.80
2023-04-21T06:34:16.532Z,7.50
2023-04-21T06:36:43.666Z,7.80
2023-04-21T06:39:11.002Z,7.20
2023-04-21T06:41:38.266Z,6.20
2023-04-21T06:44:05.697Z,5.50
2023-04-21T06:46:32.925Z,5.65
2023-04-21T06:49:00.530Z,5.95
2023-04-21T06:51:27.578Z,5.30
2023-04-21T06:53:54.836Z,7.25
2023-04-21T06:56:21.969Z,5.55
2023-04-21T06:58:49.614Z,5.78
2023-04-21T07:01:16.735Z,5.38
2023-04-21T07:03:44.211Z,5.05
2023-04-21T07:06:12.434Z,5.40
2023-04-21T07:08:41.261Z,5.55
2023-04-21T07:11:08.390Z,4.95
2023-04-21T07:13:35.848Z,5.10
2023-04-21T07:16:02.986Z,4.97
2023-04-21T07:18:34.596Z,4.53
2023-04-21T07:21:04.886Z,7.47
2023-04-21T07:23:32.208Z,5.60
2023-04-21T07:25:59.935Z,5.53
2023-04-21T07:28:27.315Z,5.47
2023-04-21T07:30:54.429Z,4.80
2023-04-21T07:33:21.753Z,4.88
2023-04-21T07:35:48.786Z,4.72
2023-04-21T07:38:16.464Z,5.20
2023-04-21T07:40:43.679Z,4.20
2023-04-21T07:43:11.094Z,4.32
2023-04-21T07:45:38.188Z,5.00
2023-04-21T07:48:07.563Z,5.38
2023-04-21T07:50:37.571Z,5.10
2023-04-21T07:53:05.498Z,4.50
2023-04-21T07:55:32.902Z,4.38
2023-04-21T07:58:00.249Z,5.55
2023-04-21T08:00:27.442Z,4.22
2023-04-21T08:02:55.094Z,4.35
2023-04-21T08:05:22.517Z,6.10
2023-04-21T08:07:50.099Z,4.80
2023-04-21T08:10:17.222Z,4.45
2023-04-21T08:12:44.659Z,4.50
2023-04-21T08:15:12.524Z,4.53
2023-04-21T08:17:40.067Z,4.55
2023-04-21T08:20:07.966Z,4.65
2023-04-21T08:22:38.286Z,4.22
2023-04-21T08:25:06.304Z,4.97
2023-04-21T08:27:33.669Z,5.00
2023-04-21T08:30:01.044Z,4.95
2023-04-21T08:32:28.621Z,4.45
2023-04-21T08:34:55.788Z,4.28
2023-04-21T08:37:23.500Z,4.40
2023-04-21T08:39:54.548Z,5.75
2023-04-21T08:42:22.053Z,4.10
2023-04-21T08:44:49.177Z,4.10
2023-04-21T08:47:16.705Z,4.57
2023-04-21T08:49:45.374Z,3.92
2023-04-21T08:52:16.126Z,4.32
2023-04-21T08:54:43.527Z,4.43
2023-04-21T08:57:15.217Z,4.00
2023-04-21T08:59:44.302Z,3.88
2023-04-21T09:02:13.044Z,4.20
2023-04-21T09:04:42.077Z,4.43
2023-04-21T09:07:10.105Z,3.95
2023-04-21T09:10:04.392Z,4.07
2023-04-21T09:12:31.913Z,4.85
2023-04-21T09:14:59.312Z,3.42
2023-04-21T09:17:32.779Z,4.28
2023-04-21T09:20:17.719Z,3.63
2023-04-21T09:22:45.410Z,4.50
2023-04-21T09:25:17.701Z,3.85
2023-04-21T09:27:46.625Z,3.65
2023-04-21T09:30:13.986Z,3.83
2023-04-21T09:32:41.737Z,4.97
2023-04-21T09:35:12.248Z,3.90
2023-04-21T09:37:43.115Z,3.88
2023-04-21T09:40:14.874Z,3.75
2023-04-21T09:42:44.539Z,3.90
2023-04-21T09:45:32.456Z,4.05
2023-04-21T09:48:04.318Z,4.15
2023-04-21T09:53:06.283Z,3.80
2023-04-21T09:55:35.091Z,3.70
2023-04-21T09:58:03.436Z,3.28
2023-04-21T10:00:31.319Z,3.50
2023-04-21T10:03:04.651Z,3.88
2023-04-21T10:05:32.545Z,3.85
2023-04-21T10:07:59.921Z,3.95
2023-04-21T10:10:31.859Z,3.78
2023-04-21T10:12:59.914Z,4.38
2023-04-21T10:15:33.574Z,4.70
2023-04-21T10:18:20.273Z,4.28
2023-04-21T10:21:10.386Z,3.90
2023-04-21T10:23:42.169Z,3.70
2023-04-21T10:26:13.540Z,3.35
2023-04-21T10:28:42.762Z,3.92
2023-04-21T10:31:23.094Z,3.30
2023-04-21T10:34:08.523Z,3.20
2023-04-21T10:36:46.024Z,4.13
2023-04-21T10:39:27.526Z,3.75
2023-04-21T10:42:19.669Z,4.10
2023-04-21T10:45:08.533Z,3.65
2023-04-21T10:47:44.347Z,3.50
2023-04-21T10:52:39.122Z,3.90
2023-04-21T10:55:10.556Z,3.33
2023-04-21T10:57:38.114Z,4.00
2023-04-21T11:00:07.281Z,4.18
2023-04-21T11:02:38.939Z,3.50
2023-04-21T11:05:09.741Z,3.58
2023-04-21T11:07:37.061Z,3.60
2023-04-21T11:10:07.689Z,3.35
2023-04-21T11:12:40.049Z,3.78
2023-04-21T11:15:10.607Z,3.55
2023-04-21T11:17:39.914Z,4.20
2023-04-21T11:20:08.520Z,4.00
2023-04-21T11:22:37.695Z,3.92
2023-04-21T11:25:05.760Z,4.07
2023-04-21T11:27:32.994Z,3.83
2023-04-21T11:30:04.367Z,4.35
2023-04-21T11:32:31.577Z,3.63
2023-04-21T11:34:59.103Z,3.67
2023-04-21T11:37:27.822Z,4.00
2023-04-21T11:39:59.931Z,4.07
2023-04-21T11:42:27.943Z,3.72
2023-04-21T11:44:56.786Z,3.50
2023-04-21T11:47:27.035Z,3.10
2023-04-21T11:49:59.472Z,4.00
2023-04-21T11:52:34.140Z,4.50
2023-04-21T11:55:06.426Z,3.53
2023-04-21T11:57:34.194Z,3.45
2023-04-21T12:00:03.914Z,3.97
2023-04-21T12:02:33.134Z,3.13
2023-04-21T12:05:09.726Z,3.80
2023-04-21T12:10:19.028Z,3.00
2023-04-21T12:12:46.549Z,3.28
2023-04-21T12:15:20.145Z,2.85
2023-04-21T12:17:53.446Z,3.20
2023-04-21T12:20:24.859Z,2.70
2023-04-21T12:22:52.587Z,2.92
2023-04-21T12:25:20.070Z,2.95
2023-04-21T12:27:54.175Z,2.53
2023-04-21T12:30:21.772Z,2.70
2023-04-21T12:32:49.479Z,3.05
2023-04-21T12:35:17.012Z,2.83
2023-04-21T12:37:45.159Z,2.90
2023-04-21T12:40:12.518Z,2.95
2023-04-21T12:42:41.901Z,2.90
2023-04-21T12:45:09.718Z,3.17
2023-04-21T12:47:37.493Z,3.40
2023-04-21T12:50:05.611Z,2.55
2023-04-21T12:52:32.729Z,2.63
2023-04-21T12:55:00.048Z,2.90
2023-04-21T12:57:27.153Z,3.45
2023-04-21T12:59:55.156Z,3.10
2023-04-21T13:02:22.526Z,2.95
2023-04-21T13:04:50.144Z,2.60
2023-04-21T13:07:21.212Z,2.85
2023-04-21T13:09:48.990Z,2.60
2023-04-21T13:12:16.048Z,3.03
2023-04-21T13:14:43.649Z,2.60
2023-04-21T13:17:11.320Z,2.58
2023-04-21T13:19:38.767Z,2.92
2023-04-21T13:22:06.062Z,2.92
2023-04-21T13:24:33.615Z,2.85
2023-04-21T13:27:04.369Z,2.90
2023-04-21T13:29:34.427Z,2.83
2023-04-21T13:32:02.829Z,2.70
2023-04-21T13:34:31.182Z,3.00
2023-04-21T13:36:58.440Z,2.38
2023-04-21T13:39:26.656Z,3.20
2023-04-21T13:41:56.095Z,3.15
2023-04-21T13:44:23.390Z,3.30
2023-04-21T13:46:52.864Z,3.50
2023-04-21T13:49:21.128Z,3.70
2023-04-21T13:51:48.267Z,3.00
2023-04-21T13:54:15.635Z,3.22
2023-04-21T13:56:42.936Z,3.28
2023-04-21T13:59:10.972Z,3.08
2023-04-21T14:01:38.207Z,2.85
2023-04-21T14:04:05.847Z,3.03
2023-04-21T14:06:33.530Z,3.33
2023-04-21T14:09:00.874Z,3.28
2023-04-21T14:11:28.023Z,3.55
2023-04-21T14:14:08.069Z,3.15
2023-04-21T14:16:36.687Z,2.97
2023-04-21T14:19:04.171Z,3.05
2023-04-21T14:21:32.826Z,3.05
2023-04-21T14:24:00.880Z,3.08
2023-04-21T14:26:28.094Z,3.08
2023-04-21T14:28:55.427Z,3.35
2023-04-21T14:31:22.637Z,3.13
2023-04-21T14:33:50.020Z,3.10
2023-04-21T14:36:17.166Z,3.63
2023-04-21T14:38:44.914Z,3.13
2023-04-21T14:41:12.078Z,3.45
2023-04-21T14:43:39.553Z,3.25
2023-04-21T14:46:07.433Z,3.00
2023-04-21T14:48:35.237Z,2.95
2023-04-21T14:51:02.564Z,3.22
2023-04-21T14:53:30.124Z,3.63
2023-04-21T14:55:57.158Z,3.00
2023-04-21T14:58:24.569Z,2.83
2023-04-21T15:00:51.774Z,3.03
2023-04-21T15:03:19.436Z,2.67
2023-04-21T15:05:46.709Z,4.22
2023-04-21T15:08:18.073Z,2.60
2023-04-21T15:10:45.459Z,3.08
2023-04-21T15:13:13.936Z,2.80
2023-04-21T15:15:41.653Z,2.78
2023-04-21T15:18:09.071Z,2.83
2023-04-21T15:20:44.394Z,2.90
2023-04-21T15:23:13.701Z,2.80
2023-04-21T15:25:41.101Z,2.50
2023-04-21T15:28:08.752Z,2.63
2023-04-21T15:30:36.038Z,2.70
2023-04-21T15:33:04.480Z,2.10
2023-04-21T15:35:31.737Z,2.40
2023-04-21T15:37:59.084Z,2.03
2023-04-21T15:40:27.091Z,2.35
2023-04-21T15:42:54.702Z,2.00
2023-04-21T15:45:21.828Z,2.40
2023-04-21T15:47:49.361Z,2.25
2023-04-21T15:50:16.834Z,2.97
2023-04-21T15:52:44.403Z,2.20
2023-04-21T15:55:12.232Z,2.30
2023-04-21T15:57:39.767Z,2.47
2023-04-21T16:00:08.830Z,2.30
2023-04-21T16:02:36.835Z,2.17
2023-04-21T16:05:04.372Z,2.40
2023-04-21T16:07:32.209Z,2.28
2023-04-21T16:09:59.460Z,2.60
2023-04-21T16:12:28.258Z,2.28
2023-04-21T16:15:01.682Z,2.53
2023-04-21T16:17:36.560Z,2.35
2023-04-21T16:20:05.761Z,2.50
2023-04-21T16:22:33.488Z,3.30
2023-04-21T16:25:00.982Z,3.35
2023-04-21T16:27:28.637Z,3.67
2023-04-21T16:29:55.838Z,2.83
2023-04-21T16:32:23.217Z,2.80
2023-04-21T16:34:50.509Z,2.75
2023-04-21T16:37:18.049Z,3.08
2023-04-21T16:39:46.117Z,2.95
2023-04-21T16:42:13.565Z,3.30
2023-04-21T16:44:40.950Z,2.80
2023-04-21T16:47:08.836Z,3.08
2023-04-21T16:49:36.088Z,2.80
2023-04-21T16:52:03.547Z,2.25
2023-04-21T16:54:30.959Z,2.20
2023-04-21T16:56:58.486Z,2.40
2023-04-21T16:59:25.668Z,2.70
2023-04-21T17:01:53.279Z,2.50
2023-04-21T17:04:20.499Z,2.50
2023-04-21T17:06:48.324Z,3.15
2023-04-21T17:09:15.428Z,3.08
2023-04-21T17:11:42.816Z,2.80
2023-04-21T17:14:10.773Z,2.63
2023-04-21T17:16:38.500Z,2.67
2023-04-21T17:19:05.749Z,2.33
2023-04-21T17:21:33.422Z,2.38
2023-04-21T17:24:00.713Z,2.40
2023-04-21T17:26:28.107Z,2.25
2023-04-21T17:28:55.283Z,2.60
2023-04-21T17:31:22.951Z,2.47
2023-04-21T17:33:52.531Z,2.30
2023-04-21T17:36:20.034Z,2.47
2023-04-21T17:38:47.521Z,2.38
2023-04-21T17:41:15.251Z,2.38
2023-04-21T17:43:42.652Z,2.35
2023-04-21T17:46:10.159Z,2.70
2023-04-21T17:48:37.671Z,2.90
2023-04-21T17:51:05.227Z,3.53
2023-04-21T17:53:32.578Z,3.42
2023-04-21T17:56:00.388Z,3.03
2023-04-21T17:58:27.978Z,3.65
2023-04-21T18:00:55.569Z,4.30
2023-04-21T18:03:22.883Z,5.00
2023-04-21T18:05:50.454Z,5.63
2023-04-21T18:08:17.519Z,5.70
2023-04-21T18:10:45.204Z,6.53
2023-04-21T18:13:12.290Z,6.30
2023-04-21T18:15:40.039Z,6.30
2023-04-21T18:18:07.453Z,5.93
2023-04-21T18:20:35.169Z,6.18
2023-04-21T18:23:03.041Z,6.03
2023-04-21T18:25:41.384Z,6.07
2023-04-21T18:28:11.515Z,4.97
2023-04-21T18:30:39.508Z,5.95
2023-04-21T18:33:06.873Z,5.82
2023-04-21T18:35:34.390Z,5.50
2023-04-21T18:38:01.709Z,6.50
2023-04-21T18:40:29.544Z,5.93
2023-04-21T18:42:56.967Z,5.88
2023-04-21T18:45:24.317Z,30.05
2023-04-21T18:47:51.578Z,6.30
2023-04-21T18:50:19.092Z,5.00
2023-04-21T18:52:46.241Z,5.30
2023-04-21T18:55:14.954Z,8.23
2023-04-21T18:57:42.021Z,6.60
2023-04-21T19:00:10.001Z,6.55
2023-04-21T19:02:37.853Z,6.28
2023-04-21T19:05:06.296Z,5.25
2023-04-21T19:07:35.515Z,5.22
2023-04-21T19:10:02.958Z,5.90
2023-04-21T19:12:30.281Z,6.28
2023-04-21T19:14:57.611Z,6.03
2023-04-21T19:17:24.687Z,5.20
2023-04-21T19:19:52.060Z,5.78
2023-04-21T19:22:19.992Z,5.78
2023-04-21T19:24:47.708Z,6.13
2023-04-21T19:27:14.767Z,6.15
2023-04-21T19:29:42.591Z,6.78
2023-04-21T19:32:10.033Z,6.93
2023-04-21T19:34:37.785Z,7.18
2023-04-21T19:37:05.234Z,7.05
2023-04-21T19:39:32.868Z,7.78
2023-04-21T19:42:00.229Z,8.65
2023-04-21T19:44:27.644Z,28.33
2023-04-21T19:46:54.774Z,11.77
2023-04-21T19:49:22.063Z,9.80
2023-04-21T19:51:49.278Z,8.50
2023-04-21T19:54:16.598Z,9.13
2023-04-21T19:56:44.678Z,8.20
2023-04-21T19:59:12.325Z,7.00
2023-04-21T20:01:39.537Z,8.07
2023-04-21T20:04:07.406Z,7.43
2023-04-21T20:06:36.423Z,7.20
2023-04-21T20:09:05.853Z,7.00
2023-04-21T20:11:36.574Z,7.05
2023-04-21T20:14:04.051Z,6.60
2023-04-21T20:16:31.914Z,6.40
2023-04-21T20:18:59.552Z,6.65
2023-04-21T20:21:27.716Z,6.57
2023-04-21T20:23:55.552Z,6.03
2023-04-21T20:26:23.206Z,6.18
2023-04-21T20:28:50.653Z,5.60
2023-04-21T20:31:19.136Z,6.15
2023-04-21T20:33:46.483Z,5.35
2023-04-21T20:36:13.592Z,5.75
2023-04-21T20:38:41.108Z,5.43
2023-04-21T20:41:08.860Z,5.32
2023-04-21T20:43:36.188Z,5.70
2023-04-21T20:46:03.339Z,5.95
2023-04-21T20:48:30.850Z,5.18
2023-04-21T20:50:58.001Z,5.30
2023-04-21T20:53:26.192Z,5.20
2023-04-21T20:55:53.382Z,5.13
2023-04-21T20:58:20.939Z,5.25
2023-04-21T21:00:48.292Z,5.03
2023-04-21T21:03:17.466Z,5.45
2023-04-21T21:05:44.570Z,6.05
2023-04-21T21:08:11.960Z,4.93
2023-04-21T21:10:38.952Z,5.85
2023-04-21T21:13:06.740Z,5.47
2023-04-21T21:15:34.058Z,4.82
2023-04-21T21:18:01.831Z,5.28
2023-04-21T21:20:29.034Z,5.65
2023-04-21T21:22:56.637Z,6.05
2023-04-21T21:25:23.779Z,6.60
2023-04-21T21:27:51.120Z,6.85
2023-04-21T21:30:18.155Z,7.10
2023-04-21T21:32:45.677Z,7.40
2023-04-21T21:35:12.898Z,7.38
2023-04-21T21:37:40.215Z,6.90
2023-04-21T21:40:07.956Z,8.20
2023-04-21T21:42:35.391Z,8.20
2023-04-21T21:45:02.505Z,7.57
2023-04-21T21:47:29.824Z,7.13
2023-04-21T21:49:58.919Z,7.43
2023-04-21T21:52:28.600Z,8.60
2023-04-21T21:54:56.934Z,7.72
2023-04-21T21:57:25.000Z,7.32
2023-04-21T21:59:52.543Z,7.38
2023-04-21T22:02:19.971Z,7.63
2023-04-21T22:04:47.654Z,6.93
2023-04-21T22:07:15.896Z,6.97
2023-04-21T22:09:43.037Z,7.30
2023-04-21T22:12:10.459Z,7.60
2023-04-21T22:14:37.704Z,7.78
2023-04-21T22:17:06.781Z,8.55
2023-04-21T22:19:34.276Z,8.68
2023-04-21T22:22:01.579Z,8.25
2023-04-21T22:24:28.951Z,9.07
2023-04-21T22:26:57.176Z,8.25
2023-04-21T22:29:24.231Z,6.93
2023-04-21T22:31:51.657Z,7.78
2023-04-21T22:34:19.830Z,8.35
2023-04-21T22:36:47.362Z,8.40
2023-04-21T22:39:14.378Z,8.13
2023-04-21T22:41:41.721Z,7.30
2023-04-21T22:44:09.414Z,7.57
2023-04-21T22:46:36.911Z,6.82
2023-04-21T22:49:05.169Z,7.63
2023-04-21T22:51:33.107Z,6.85
2023-04-21T22:54:00.698Z,7.38
2023-04-21T22:56:29.391Z,7.90
2023-04-21T22:58:56.449Z,6.30
2023-04-21T23:01:23.896Z,6.68
2023-04-21T23:03:51.219Z,6.97
2023-04-21T23:06:18.659Z,6.63
2023-04-21T23:08:45.717Z,6.55
2023-04-21T23:11:13.567Z,7.10
2023-04-21T23:13:40.976Z,7.20
2023-04-21T23:16:08.496Z,7.10
2023-04-21T23:18:35.987Z,6.45
2023-04-21T23:21:03.306Z,6.85
2023-04-21T23:23:30.639Z,7.70
2023-04-21T23:25:57.961Z,6.32
2023-04-21T23:28:25.050Z,7.07
2023-04-21T23:30:52.855Z,6.30
2023-04-21T23:33:20.014Z,6.20
2023-04-21T23:35:48.136Z,6.93
2023-04-21T23:38:18.267Z,6.00
2023-04-21T23:40:45.649Z,5.72
2023-04-21T23:43:12.799Z,6.05
2023-04-21T23:45:40.691Z,6.10
2023-04-21T23:48:07.824Z,5.97
2023-04-21T23:50:36.319Z,5.93
2023-04-21T23:53:03.477Z,5.72
2023-04-21T23:55:30.893Z,6.38
2023-04-21T23:57:58.063Z,6.68
